sensor_id;sensor_type;location;lat;lon;timestamp;temperature;humidity
66184;DHT22;52989;48.796;9.806;2023-06-19T00:00:37;22.70;62.70
66184;DHT22;52989;48.796;9.806;2023-06-19T00:03:04;22.60;61.40
66184;DHT22;52989;48.796;9.806;2023-06-19T00:05:29;22.60;62.30
66184;DHT22;52989;48.796;9.806;2023-06-19T00:07:55;22.60;63.80
66184;DHT22;52989;48.796;9.806;2023-06-19T00:10:20;22.50;64.70
66184;DHT22;52989;48.796;9.806;2023-06-19T00:12:46;22.20;65.60
66184;DHT22;52989;48.796;9.806;2023-06-19T00:15:11;22.10;66.30
66184;DHT22;52989;48.796;9.806;2023-06-19T00:17:37;22.00;65.70
66184;DHT22;52989;48.796;9.806;2023-06-19T00:20:05;22.00;65.60
66184;DHT22;52989;48.796;9.806;2023-06-19T00:22:31;22.00;65.30
66184;DHT22;52989;48.796;9.806;2023-06-19T00:24:57;22.00;64.20
66184;DHT22;52989;48.796;9.806;2023-06-19T00:27:22;22.00;62.70
66184;DHT22;52989;48.796;9.806;2023-06-19T00:29:50;22.20;62.10
66184;DHT22;52989;48.796;9.806;2023-06-19T00:32:16;22.10;62.90
66184;DHT22;52989;48.796;9.806;2023-06-19T00:34:42;22.10;63.40
66184;DHT22;52989;48.796;9.806;2023-06-19T00:37:08;21.90;64.50
66184;DHT22;52989;48.796;9.806;2023-06-19T00:39:36;21.70;65.10
66184;DHT22;52989;48.796;9.806;2023-06-19T00:42:01;21.60;65.50
66184;DHT22;52989;48.796;9.806;2023-06-19T00:44:27;21.50;65.30
66184;DHT22;52989;48.796;9.806;2023-06-19T00:46:56;21.50;66.20
66184;DHT22;52989;48.796;9.806;2023-06-19T00:49:22;21.40;66.30
66184;DHT22;52989;48.796;9.806;2023-06-19T00:51:48;21.30;66.90
66184;DHT22;52989;48.796;9.806;2023-06-19T00:54:14;21.20;67.10
66184;DHT22;52989;48.796;9.806;2023-06-19T00:56:39;21.20;68.00
66184;DHT22;52989;48.796;9.806;2023-06-19T00:59:08;21.20;68.20
66184;DHT22;52989;48.796;9.806;2023-06-19T01:01:37;21.10;68.90
66184;DHT22;52989;48.796;9.806;2023-06-19T01:04:03;21.00;70.00
66184;DHT22;52989;48.796;9.806;2023-06-19T01:06:30;20.90;70.00
66184;DHT22;52989;48.796;9.806;2023-06-19T01:09:07;21.00;70.40
66184;DHT22;52989;48.796;9.806;2023-06-19T01:11:34;21.00;69.00
66184;DHT22;52989;48.796;9.806;2023-06-19T01:14:03;21.10;69.40
66184;DHT22;52989;48.796;9.806;2023-06-19T01:16:30;21.10;72.60
66184;DHT22;52989;48.796;9.806;2023-06-19T01:18:57;21.10;74.00
66184;DHT22;52989;48.796;9.806;2023-06-19T01:21:23;21.10;73.40
66184;DHT22;52989;48.796;9.806;2023-06-19T01:23:48;21.10;73.40
66184;DHT22;52989;48.796;9.806;2023-06-19T01:26:15;20.90;73.90
66184;DHT22;52989;48.796;9.806;2023-06-19T01:28:42;20.90;74.50
66184;DHT22;52989;48.796;9.806;2023-06-19T01:31:18;20.90;74.30
66184;DHT22;52989;48.796;9.806;2023-06-19T01:33:46;20.80;74.30
66184;DHT22;52989;48.796;9.806;2023-06-19T01:36:12;20.80;74.20
66184;DHT22;52989;48.796;9.806;2023-06-19T01:38:39;20.90;74.50
66184;DHT22;52989;48.796;9.806;2023-06-19T01:41:06;20.90;70.60
66184;DHT22;52989;48.796;9.806;2023-06-19T01:43:32;20.90;70.50
66184;DHT22;52989;48.796;9.806;2023-06-19T01:45:58;20.90;72.40
66184;DHT22;52989;48.796;9.806;2023-06-19T01:48:23;21.00;71.50
66184;DHT22;52989;48.796;9.806;2023-06-19T01:50:49;20.80;72.10
66184;DHT22;52989;48.796;9.806;2023-06-19T01:53:16;20.80;72.70
66184;DHT22;52989;48.796;9.806;2023-06-19T01:55:42;20.60;72.60
66184;DHT22;52989;48.796;9.806;2023-06-19T01:58:07;20.50;73.50
66184;DHT22;52989;48.796;9.806;2023-06-19T02:00:33;20.50;73.70
66184;DHT22;52989;48.796;9.806;2023-06-19T02:03:02;20.60;72.00
66184;DHT22;52989;48.796;9.806;2023-06-19T02:05:28;20.80;70.90
66184;DHT22;52989;48.796;9.806;2023-06-19T02:07:54;20.70;72.70
66184;DHT22;52989;48.796;9.806;2023-06-19T02:10:20;20.70;71.80
66184;DHT22;52989;48.796;9.806;2023-06-19T02:12:45;20.70;72.50
66184;DHT22;52989;48.796;9.806;2023-06-19T02:15:11;20.70;72.70
66184;DHT22;52989;48.796;9.806;2023-06-19T02:17:36;20.60;73.10
66184;DHT22;52989;48.796;9.806;2023-06-19T02:20:02;20.60;73.80
66184;DHT22;52989;48.796;9.806;2023-06-19T02:22:27;20.50;73.80
66184;DHT22;52989;48.796;9.806;2023-06-19T02:24:53;20.50;73.90
66184;DHT22;52989;48.796;9.806;2023-06-19T02:27:18;20.30;75.40
66184;DHT22;52989;48.796;9.806;2023-06-19T02:29:44;20.30;73.00
66184;DHT22;52989;48.796;9.806;2023-06-19T02:32:09;20.20;73.10
66184;DHT22;52989;48.796;9.806;2023-06-19T02:34:35;20.10;74.50
66184;DHT22;52989;48.796;9.806;2023-06-19T02:37:00;20.00;74.10
66184;DHT22;52989;48.796;9.806;2023-06-19T02:39:26;19.80;74.70
66184;DHT22;52989;48.796;9.806;2023-06-19T02:41:52;19.70;74.70
66184;DHT22;52989;48.796;9.806;2023-06-19T02:44:17;19.70;75.00
66184;DHT22;52989;48.796;9.806;2023-06-19T02:46:43;19.60;75.70
66184;DHT22;52989;48.796;9.806;2023-06-19T02:49:08;19.50;75.10
66184;DHT22;52989;48.796;9.806;2023-06-19T02:51:34;19.50;74.60
66184;DHT22;52989;48.796;9.806;2023-06-19T02:53:59;19.60;74.50
66184;DHT22;52989;48.796;9.806;2023-06-19T02:56:25;19.60;74.10
66184;DHT22;52989;48.796;9.806;2023-06-19T02:58:51;19.70;74.50
66184;DHT22;52989;48.796;9.806;2023-06-19T03:01:17;19.70;75.00
66184;DHT22;52989;48.796;9.806;2023-06-19T03:03:42;19.70;74.50
66184;DHT22;52989;48.796;9.806;2023-06-19T03:06:08;19.70;74.70
66184;DHT22;52989;48.796;9.806;2023-06-19T03:08:36;19.80;74.30
66184;DHT22;52989;48.796;9.806;2023-06-19T03:11:03;19.70;75.80
66184;DHT22;52989;48.796;9.806;2023-06-19T03:13:43;19.70;76.00
66184;DHT22;52989;48.796;9.806;2023-06-19T03:16:09;19.70;76.80
66184;DHT22;52989;48.796;9.806;2023-06-19T03:18:34;19.70;76.70
66184;DHT22;52989;48.796;9.806;2023-06-19T03:21:00;19.60;76.70
66184;DHT22;52989;48.796;9.806;2023-06-19T03:23:25;19.70;76.80
66184;DHT22;52989;48.796;9.806;2023-06-19T03:25:52;19.70;76.90
66184;DHT22;52989;48.796;9.806;2023-06-19T03:28:17;19.80;76.20
66184;DHT22;52989;48.796;9.806;2023-06-19T03:30:43;19.80;77.30
66184;DHT22;52989;48.796;9.806;2023-06-19T03:33:08;19.80;77.50
66184;DHT22;52989;48.796;9.806;2023-06-19T03:35:34;19.80;78.20
66184;DHT22;52989;48.796;9.806;2023-06-19T03:37:59;19.70;77.20
66184;DHT22;52989;48.796;9.806;2023-06-19T03:40:25;19.80;77.10
66184;DHT22;52989;48.796;9.806;2023-06-19T03:42:51;19.80;77.10
66184;DHT22;52989;48.796;9.806;2023-06-19T03:45:16;19.80;77.20
66184;DHT22;52989;48.796;9.806;2023-06-19T03:47:42;20.00;77.20
66184;DHT22;52989;48.796;9.806;2023-06-19T03:50:07;19.90;77.00
66184;DHT22;52989;48.796;9.806;2023-06-19T03:52:35;20.00;77.30
66184;DHT22;52989;48.796;9.806;2023-06-19T03:55:01;19.90;77.70
66184;DHT22;52989;48.796;9.806;2023-06-19T03:57:26;20.00;77.50
66184;DHT22;52989;48.796;9.806;2023-06-19T03:59:52;20.00;77.50
66184;DHT22;52989;48.796;9.806;2023-06-19T04:02:19;20.20;76.40
66184;DHT22;52989;48.796;9.806;2023-06-19T04:04:44;20.50;75.40
66184;DHT22;52989;48.796;9.806;2023-06-19T04:07:10;20.70;75.10
66184;DHT22;52989;48.796;9.806;2023-06-19T04:09:35;20.70;75.20
66184;DHT22;52989;48.796;9.806;2023-06-19T04:12:02;20.70;75.50
66184;DHT22;52989;48.796;9.806;2023-06-19T04:14:27;20.70;75.60
66184;DHT22;52989;48.796;9.806;2023-06-19T04:16:53;20.90;75.20
66184;DHT22;52989;48.796;9.806;2023-06-19T04:19:18;20.90;75.20
66184;DHT22;52989;48.796;9.806;2023-06-19T04:21:44;21.00;74.80
66184;DHT22;52989;48.796;9.806;2023-06-19T04:24:09;21.00;75.20
66184;DHT22;52989;48.796;9.806;2023-06-19T04:26:35;21.00;75.00
66184;DHT22;52989;48.796;9.806;2023-06-19T04:29:04;20.90;75.50
66184;DHT22;52989;48.796;9.806;2023-06-19T04:31:31;20.90;76.00
66184;DHT22;52989;48.796;9.806;2023-06-19T04:33:58;21.00;76.10
66184;DHT22;52989;48.796;9.806;2023-06-19T04:36:24;21.00;76.10
66184;DHT22;52989;48.796;9.806;2023-06-19T04:38:49;21.10;76.80
66184;DHT22;52989;48.796;9.806;2023-06-19T04:41:18;21.10;77.00
66184;DHT22;52989;48.796;9.806;2023-06-19T04:43:43;21.20;75.50
66184;DHT22;52989;48.796;9.806;2023-06-19T04:46:09;21.30;75.30
66184;DHT22;52989;48.796;9.806;2023-06-19T04:48:34;21.30;75.60
66184;DHT22;52989;48.796;9.806;2023-06-19T04:51:02;21.30;75.10
66184;DHT22;52989;48.796;9.806;2023-06-19T04:53:27;21.40;75.30
66184;DHT22;52989;48.796;9.806;2023-06-19T04:55:53;21.30;75.20
66184;DHT22;52989;48.796;9.806;2023-06-19T04:58:22;21.30;75.60
66184;DHT22;52989;48.796;9.806;2023-06-19T05:00:48;21.20;77.60
66184;DHT22;52989;48.796;9.806;2023-06-19T05:03:16;21.10;77.90
66184;DHT22;52989;48.796;9.806;2023-06-19T05:05:42;21.10;76.80
66184;DHT22;52989;48.796;9.806;2023-06-19T05:08:07;21.10;77.50
66184;DHT22;52989;48.796;9.806;2023-06-19T05:10:33;21.20;77.10
66184;DHT22;52989;48.796;9.806;2023-06-19T05:12:58;21.30;77.10
66184;DHT22;52989;48.796;9.806;2023-06-19T05:15:24;21.20;77.60
66184;DHT22;52989;48.796;9.806;2023-06-19T05:17:49;21.30;76.60
66184;DHT22;52989;48.796;9.806;2023-06-19T05:20:15;21.40;76.60
66184;DHT22;52989;48.796;9.806;2023-06-19T05:22:40;21.50;77.00
66184;DHT22;52989;48.796;9.806;2023-06-19T05:25:06;21.60;75.80
66184;DHT22;52989;48.796;9.806;2023-06-19T05:27:32;21.60;76.60
66184;DHT22;52989;48.796;9.806;2023-06-19T05:29:57;21.60;78.20
66184;DHT22;52989;48.796;9.806;2023-06-19T05:32:22;21.60;76.90
66184;DHT22;52989;48.796;9.806;2023-06-19T05:34:48;21.60;78.10
66184;DHT22;52989;48.796;9.806;2023-06-19T05:37:13;21.50;79.10
66184;DHT22;52989;48.796;9.806;2023-06-19T05:39:39;21.50;78.80
66184;DHT22;52989;48.796;9.806;2023-06-19T05:42:04;21.70;76.90
66184;DHT22;52989;48.796;9.806;2023-06-19T05:44:30;21.90;76.80
66184;DHT22;52989;48.796;9.806;2023-06-19T05:46:55;22.00;75.30
66184;DHT22;52989;48.796;9.806;2023-06-19T05:49:21;22.00;74.90
66184;DHT22;52989;48.796;9.806;2023-06-19T05:51:46;22.00;74.90
66184;DHT22;52989;48.796;9.806;2023-06-19T05:54:13;22.00;74.90
66184;DHT22;52989;48.796;9.806;2023-06-19T05:56:38;22.10;75.00
66184;DHT22;52989;48.796;9.806;2023-06-19T05:59:04;22.10;75.50
66184;DHT22;52989;48.796;9.806;2023-06-19T06:01:29;21.90;75.70
66184;DHT22;52989;48.796;9.806;2023-06-19T06:03:55;22.00;76.00
66184;DHT22;52989;48.796;9.806;2023-06-19T06:06:22;22.20;75.60
66184;DHT22;52989;48.796;9.806;2023-06-19T06:08:47;22.30;76.00
66184;DHT22;52989;48.796;9.806;2023-06-19T06:11:13;22.40;75.40
66184;DHT22;52989;48.796;9.806;2023-06-19T06:13:38;22.30;75.30
66184;DHT22;52989;48.796;9.806;2023-06-19T06:16:04;22.50;74.90
66184;DHT22;52989;48.796;9.806;2023-06-19T06:18:29;22.40;74.90
66184;DHT22;52989;48.796;9.806;2023-06-19T06:20:55;22.40;75.50
66184;DHT22;52989;48.796;9.806;2023-06-19T06:23:20;22.30;75.40
66184;DHT22;52989;48.796;9.806;2023-06-19T06:25:45;22.40;74.90
66184;DHT22;52989;48.796;9.806;2023-06-19T06:28:11;22.70;74.70
66184;DHT22;52989;48.796;9.806;2023-06-19T06:30:37;22.70;74.20
66184;DHT22;52989;48.796;9.806;2023-06-19T06:33:02;22.90;73.90
66184;DHT22;52989;48.796;9.806;2023-06-19T06:35:28;22.90;73.90
66184;DHT22;52989;48.796;9.806;2023-06-19T06:37:53;23.20;74.50
66184;DHT22;52989;48.796;9.806;2023-06-19T06:40:19;23.40;73.90
66184;DHT22;52989;48.796;9.806;2023-06-19T06:42:44;23.00;73.70
66184;DHT22;52989;48.796;9.806;2023-06-19T06:45:10;23.00;74.50
66184;DHT22;52989;48.796;9.806;2023-06-19T06:47:35;22.90;74.80
66184;DHT22;52989;48.796;9.806;2023-06-19T06:50:01;23.00;74.80
66184;DHT22;52989;48.796;9.806;2023-06-19T06:52:26;23.10;74.00
66184;DHT22;52989;48.796;9.806;2023-06-19T06:54:53;23.40;73.80
66184;DHT22;52989;48.796;9.806;2023-06-19T06:57:18;24.00;73.10
66184;DHT22;52989;48.796;9.806;2023-06-19T06:59:44;23.90;71.40
66184;DHT22;52989;48.796;9.806;2023-06-19T07:02:09;24.10;73.00
66184;DHT22;52989;48.796;9.806;2023-06-19T07:04:35;24.40;72.00
66184;DHT22;52989;48.796;9.806;2023-06-19T07:07:00;24.30;71.90
66184;DHT22;52989;48.796;9.806;2023-06-19T07:09:26;24.10;71.70
66184;DHT22;52989;48.796;9.806;2023-06-19T07:11:52;23.80;72.30
66184;DHT22;52989;48.796;9.806;2023-06-19T07:14:17;23.80;72.80
66184;DHT22;52989;48.796;9.806;2023-06-19T07:16:44;23.60;71.40
66184;DHT22;52989;48.796;9.806;2023-06-19T07:19:10;23.50;72.50
66184;DHT22;52989;48.796;9.806;2023-06-19T07:21:35;23.30;73.20
66184;DHT22;52989;48.796;9.806;2023-06-19T07:24:01;23.60;72.40
66184;DHT22;52989;48.796;9.806;2023-06-19T07:26:26;23.60;72.50
66184;DHT22;52989;48.796;9.806;2023-06-19T07:28:52;23.80;72.20
66184;DHT22;52989;48.796;9.806;2023-06-19T07:31:17;24.20;71.20
66184;DHT22;52989;48.796;9.806;2023-06-19T07:33:43;24.20;71.10
66184;DHT22;52989;48.796;9.806;2023-06-19T07:36:08;24.20;71.90
66184;DHT22;52989;48.796;9.806;2023-06-19T07:38:39;24.40;71.20
66184;DHT22;52989;48.796;9.806;2023-06-19T07:41:04;24.40;70.90
66184;DHT22;52989;48.796;9.806;2023-06-19T07:43:32;24.30;71.40
66184;DHT22;52989;48.796;9.806;2023-06-19T07:45:58;24.70;71.00
66184;DHT22;52989;48.796;9.806;2023-06-19T07:48:24;24.40;71.60
66184;DHT22;52989;48.796;9.806;2023-06-19T07:50:49;24.50;70.50
66184;DHT22;52989;48.796;9.806;2023-06-19T07:53:15;24.60;70.10
66184;DHT22;52989;48.796;9.806;2023-06-19T07:55:41;24.00;71.70
66184;DHT22;52989;48.796;9.806;2023-06-19T07:58:07;24.00;71.30
66184;DHT22;52989;48.796;9.806;2023-06-19T08:00:32;23.90;71.80
66184;DHT22;52989;48.796;9.806;2023-06-19T08:02:58;24.00;71.60
66184;DHT22;52989;48.796;9.806;2023-06-19T08:05:23;24.30;72.00
66184;DHT22;52989;48.796;9.806;2023-06-19T08:07:48;24.40;71.50
66184;DHT22;52989;48.796;9.806;2023-06-19T08:10:14;24.30;71.30
66184;DHT22;52989;48.796;9.806;2023-06-19T08:12:43;24.40;70.70
66184;DHT22;52989;48.796;9.806;2023-06-19T08:15:09;24.60;71.10
66184;DHT22;52989;48.796;9.806;2023-06-19T08:17:34;25.00;71.00
66184;DHT22;52989;48.796;9.806;2023-06-19T08:20:00;25.00;71.60
66184;DHT22;52989;48.796;9.806;2023-06-19T08:22:26;25.40;70.80
66184;DHT22;52989;48.796;9.806;2023-06-19T08:24:51;25.20;70.70
66184;DHT22;52989;48.796;9.806;2023-06-19T08:27:17;25.60;70.70
66184;DHT22;52989;48.796;9.806;2023-06-19T08:29:42;26.00;69.30
66184;DHT22;52989;48.796;9.806;2023-06-19T08:32:08;25.50;70.00
66184;DHT22;52989;48.796;9.806;2023-06-19T08:34:34;25.60;70.10
66184;DHT22;52989;48.796;9.806;2023-06-19T08:37:00;25.90;69.50
66184;DHT22;52989;48.796;9.806;2023-06-19T08:39:25;26.20;69.00
66184;DHT22;52989;48.796;9.806;2023-06-19T08:41:51;26.30;67.20
66184;DHT22;52989;48.796;9.806;2023-06-19T08:44:18;26.10;68.50
66184;DHT22;52989;48.796;9.806;2023-06-19T08:46:44;26.30;68.30
66184;DHT22;52989;48.796;9.806;2023-06-19T08:49:09;26.10;68.20
66184;DHT22;52989;48.796;9.806;2023-06-19T08:51:36;26.20;69.60
66184;DHT22;52989;48.796;9.806;2023-06-19T08:54:03;25.90;70.20
66184;DHT22;52989;48.796;9.806;2023-06-19T08:56:29;25.80;68.90
66184;DHT22;52989;48.796;9.806;2023-06-19T08:59:12;26.20;69.40
66184;DHT22;52989;48.796;9.806;2023-06-19T09:01:38;26.10;69.90
66184;DHT22;52989;48.796;9.806;2023-06-19T09:04:10;26.40;69.10
66184;DHT22;52989;48.796;9.806;2023-06-19T09:06:36;26.60;67.50
66184;DHT22;52989;48.796;9.806;2023-06-19T09:09:04;26.50;67.20
66184;DHT22;52989;48.796;9.806;2023-06-19T09:11:32;26.70;69.10
66184;DHT22;52989;48.796;9.806;2023-06-19T09:13:57;26.20;68.30
66184;DHT22;52989;48.796;9.806;2023-06-19T09:16:23;26.30;67.60
66184;DHT22;52989;48.796;9.806;2023-06-19T09:18:49;26.40;67.10
66184;DHT22;52989;48.796;9.806;2023-06-19T09:21:16;26.80;66.20
66184;DHT22;52989;48.796;9.806;2023-06-19T09:23:43;26.80;66.50
66184;DHT22;52989;48.796;9.806;2023-06-19T09:26:08;26.80;65.70
66184;DHT22;52989;48.796;9.806;2023-06-19T09:28:39;27.10;65.00
66184;DHT22;52989;48.796;9.806;2023-06-19T09:31:05;26.90;65.60
66184;DHT22;52989;48.796;9.806;2023-06-19T09:33:31;27.10;64.90
66184;DHT22;52989;48.796;9.806;2023-06-19T09:35:58;27.10;66.40
66184;DHT22;52989;48.796;9.806;2023-06-19T09:38:24;27.40;64.70
66184;DHT22;52989;48.796;9.806;2023-06-19T09:40:51;27.60;64.10
66184;DHT22;52989;48.796;9.806;2023-06-19T09:43:24;27.80;65.40
66184;DHT22;52989;48.796;9.806;2023-06-19T09:45:50;27.60;65.60
66184;DHT22;52989;48.796;9.806;2023-06-19T09:48:18;27.50;65.20
66184;DHT22;52989;48.796;9.806;2023-06-19T09:50:44;27.50;63.70
66184;DHT22;52989;48.796;9.806;2023-06-19T09:53:11;27.90;63.50
66184;DHT22;52989;48.796;9.806;2023-06-19T09:55:36;27.50;64.90
66184;DHT22;52989;48.796;9.806;2023-06-19T09:58:02;27.20;64.10
66184;DHT22;52989;48.796;9.806;2023-06-19T10:00:30;27.60;64.50
66184;DHT22;52989;48.796;9.806;2023-06-19T10:02:57;27.80;64.20
66184;DHT22;52989;48.796;9.806;2023-06-19T10:05:28;27.50;62.50
66184;DHT22;52989;48.796;9.806;2023-06-19T10:07:53;27.80;62.80
66184;DHT22;52989;48.796;9.806;2023-06-19T10:10:23;28.00;62.20
66184;DHT22;52989;48.796;9.806;2023-06-19T10:12:49;28.40;61.90
66184;DHT22;52989;48.796;9.806;2023-06-19T10:15:24;28.60;62.80
66184;DHT22;52989;48.796;9.806;2023-06-19T10:17:53;28.70;61.20
66184;DHT22;52989;48.796;9.806;2023-06-19T10:20:27;28.50;60.20
66184;DHT22;52989;48.796;9.806;2023-06-19T10:22:57;28.10;60.70
66184;DHT22;52989;48.796;9.806;2023-06-19T10:25:23;28.10;61.10
66184;DHT22;52989;48.796;9.806;2023-06-19T10:27:49;28.00;61.40
66184;DHT22;52989;48.796;9.806;2023-06-19T10:30:18;28.30;61.90
66184;DHT22;52989;48.796;9.806;2023-06-19T10:32:48;28.40;60.50
66184;DHT22;52989;48.796;9.806;2023-06-19T10:35:14;28.80;61.00
66184;DHT22;52989;48.796;9.806;2023-06-19T10:37:40;28.50;60.50
66184;DHT22;52989;48.796;9.806;2023-06-19T10:40:06;28.20;61.40
66184;DHT22;52989;48.796;9.806;2023-06-19T10:42:39;27.90;61.60
66184;DHT22;52989;48.796;9.806;2023-06-19T10:45:05;27.40;62.50
66184;DHT22;52989;48.796;9.806;2023-06-19T10:47:34;27.30;62.00
66184;DHT22;52989;48.796;9.806;2023-06-19T10:49:59;27.40;61.60
66184;DHT22;52989;48.796;9.806;2023-06-19T10:52:25;27.70;62.30
66184;DHT22;52989;48.796;9.806;2023-06-19T10:54:54;27.70;60.40
66184;DHT22;52989;48.796;9.806;2023-06-19T10:57:32;27.70;61.20
66184;DHT22;52989;48.796;9.806;2023-06-19T10:59:57;28.00;61.40
66184;DHT22;52989;48.796;9.806;2023-06-19T11:02:26;28.20;60.60
66184;DHT22;52989;48.796;9.806;2023-06-19T11:04:54;28.10;60.80
66184;DHT22;52989;48.796;9.806;2023-06-19T11:07:21;28.20;62.20
66184;DHT22;52989;48.796;9.806;2023-06-19T11:09:48;28.10;62.80
66184;DHT22;52989;48.796;9.806;2023-06-19T11:12:18;28.00;61.80
66184;DHT22;52989;48.796;9.806;2023-06-19T11:14:43;28.00;62.10
66184;DHT22;52989;48.796;9.806;2023-06-19T11:17:09;28.10;61.20
66184;DHT22;52989;48.796;9.806;2023-06-19T11:19:36;28.10;61.00
66184;DHT22;52989;48.796;9.806;2023-06-19T11:22:05;28.00;60.30
66184;DHT22;52989;48.796;9.806;2023-06-19T11:24:32;28.20;60.20
66184;DHT22;52989;48.796;9.806;2023-06-19T11:26:57;28.40;59.90
66184;DHT22;52989;48.796;9.806;2023-06-19T11:29:30;28.50;62.00
66184;DHT22;52989;48.796;9.806;2023-06-19T11:34:32;28.90;60.00
66184;DHT22;52989;48.796;9.806;2023-06-19T11:36:58;28.40;60.50
66184;DHT22;52989;48.796;9.806;2023-06-19T11:39:24;28.40;62.40
66184;DHT22;52989;48.796;9.806;2023-06-19T11:41:50;28.50;61.40
66184;DHT22;52989;48.796;9.806;2023-06-19T11:44:15;28.60;63.00
66184;DHT22;52989;48.796;9.806;2023-06-19T11:46:41;28.90;60.00
66184;DHT22;52989;48.796;9.806;2023-06-19T11:49:14;29.10;59.50
66184;DHT22;52989;48.796;9.806;2023-06-19T11:51:40;28.90;58.80
66184;DHT22;52989;48.796;9.806;2023-06-19T11:54:06;29.10;59.70
66184;DHT22;52989;48.796;9.806;2023-06-19T11:56:33;29.00;59.90
66184;DHT22;52989;48.796;9.806;2023-06-19T11:58:59;28.50;61.00
66184;DHT22;52989;48.796;9.806;2023-06-19T12:01:25;28.30;59.90
66184;DHT22;52989;48.796;9.806;2023-06-19T12:03:51;28.40;61.20
66184;DHT22;52989;48.796;9.806;2023-06-19T12:06:17;28.70;61.30
66184;DHT22;52989;48.796;9.806;2023-06-19T12:08:45;28.70;59.90
66184;DHT22;52989;48.796;9.806;2023-06-19T12:11:11;28.90;58.90
66184;DHT22;52989;48.796;9.806;2023-06-19T12:13:40;29.10;58.40
66184;DHT22;52989;48.796;9.806;2023-06-19T12:16:06;28.80;59.90
66184;DHT22;52989;48.796;9.806;2023-06-19T12:18:32;28.80;58.80
66184;DHT22;52989;48.796;9.806;2023-06-19T12:20:57;28.90;58.80
66184;DHT22;52989;48.796;9.806;2023-06-19T12:23:23;29.00;59.50
66184;DHT22;52989;48.796;9.806;2023-06-19T12:25:48;29.00;58.70
66184;DHT22;52989;48.796;9.806;2023-06-19T12:28:14;29.20;59.00
66184;DHT22;52989;48.796;9.806;2023-06-19T12:30:43;29.40;58.70
66184;DHT22;52989;48.796;9.806;2023-06-19T12:33:09;29.40;59.10
66184;DHT22;52989;48.796;9.806;2023-06-19T12:35:35;29.40;58.60
66184;DHT22;52989;48.796;9.806;2023-06-19T12:38:01;29.60;59.50
66184;DHT22;52989;48.796;9.806;2023-06-19T12:40:26;29.90;59.00
66184;DHT22;52989;48.796;9.806;2023-06-19T12:42:52;30.10;58.60
66184;DHT22;52989;48.796;9.806;2023-06-19T12:45:17;30.40;57.90
66184;DHT22;52989;48.796;9.806;2023-06-19T12:47:43;30.40;57.20
66184;DHT22;52989;48.796;9.806;2023-06-19T12:50:08;30.50;57.20
66184;DHT22;52989;48.796;9.806;2023-06-19T12:52:34;30.70;57.10
66184;DHT22;52989;48.796;9.806;2023-06-19T12:54:59;30.50;54.30
66184;DHT22;52989;48.796;9.806;2023-06-19T12:57:26;30.60;56.50
66184;DHT22;52989;48.796;9.806;2023-06-19T12:59:52;30.60;55.20
66184;DHT22;52989;48.796;9.806;2023-06-19T13:02:17;30.80;55.30
66184;DHT22;52989;48.796;9.806;2023-06-19T13:04:43;31.00;56.40
66184;DHT22;52989;48.796;9.806;2023-06-19T13:07:08;31.10;55.80
66184;DHT22;52989;48.796;9.806;2023-06-19T13:09:34;30.80;53.90
66184;DHT22;52989;48.796;9.806;2023-06-19T13:12:01;30.50;54.10
66184;DHT22;52989;48.796;9.806;2023-06-19T13:14:27;30.50;54.10
66184;DHT22;52989;48.796;9.806;2023-06-19T13:16:52;30.30;55.40
66184;DHT22;52989;48.796;9.806;2023-06-19T13:19:18;30.60;55.60
66184;DHT22;52989;48.796;9.806;2023-06-19T13:21:44;30.50;54.20
66184;DHT22;52989;48.796;9.806;2023-06-19T13:24:09;30.70;55.30
66184;DHT22;52989;48.796;9.806;2023-06-19T13:26:35;30.50;54.60
66184;DHT22;52989;48.796;9.806;2023-06-19T13:29:00;30.30;54.20
66184;DHT22;52989;48.796;9.806;2023-06-19T13:31:26;30.30;55.50
66184;DHT22;52989;48.796;9.806;2023-06-19T13:33:53;30.70;56.10
66184;DHT22;52989;48.796;9.806;2023-06-19T13:36:18;30.40;55.50
66184;DHT22;52989;48.796;9.806;2023-06-19T13:38:45;30.60;54.70
66184;DHT22;52989;48.796;9.806;2023-06-19T13:41:10;30.60;56.20
66184;DHT22;52989;48.796;9.806;2023-06-19T13:43:35;30.60;55.40
66184;DHT22;52989;48.796;9.806;2023-06-19T13:46:01;31.00;54.60
66184;DHT22;52989;48.796;9.806;2023-06-19T13:48:29;31.20;54.80
66184;DHT22;52989;48.796;9.806;2023-06-19T13:50:54;31.40;54.20
66184;DHT22;52989;48.796;9.806;2023-06-19T13:53:21;31.60;53.20
66184;DHT22;52989;48.796;9.806;2023-06-19T13:55:47;31.40;51.30
66184;DHT22;52989;48.796;9.806;2023-06-19T13:58:12;31.20;51.10
66184;DHT22;52989;48.796;9.806;2023-06-19T14:00:38;31.00;52.40
66184;DHT22;52989;48.796;9.806;2023-06-19T14:03:03;30.90;52.90
66184;DHT22;52989;48.796;9.806;2023-06-19T14:05:31;30.80;52.90
66184;DHT22;52989;48.796;9.806;2023-06-19T14:07:58;30.90;53.70
66184;DHT22;52989;48.796;9.806;2023-06-19T14:10:24;31.10;52.90
66184;DHT22;52989;48.796;9.806;2023-06-19T14:12:49;30.80;53.80
66184;DHT22;52989;48.796;9.806;2023-06-19T14:15:15;31.20;54.30
66184;DHT22;52989;48.796;9.806;2023-06-19T14:17:40;31.20;54.30
66184;DHT22;52989;48.796;9.806;2023-06-19T14:20:07;31.20;54.80
66184;DHT22;52989;48.796;9.806;2023-06-19T14:22:32;31.40;53.40
66184;DHT22;52989;48.796;9.806;2023-06-19T14:24:58;31.40;53.00
66184;DHT22;52989;48.796;9.806;2023-06-19T14:27:25;31.10;54.60
66184;DHT22;52989;48.796;9.806;2023-06-19T14:29:51;30.80;53.00
66184;DHT22;52989;48.796;9.806;2023-06-19T14:32:18;30.70;53.00
66184;DHT22;52989;48.796;9.806;2023-06-19T14:34:44;30.70;52.30
66184;DHT22;52989;48.796;9.806;2023-06-19T14:37:09;30.50;52.50
66184;DHT22;52989;48.796;9.806;2023-06-19T14:39:35;30.60;52.20
66184;DHT22;52989;48.796;9.806;2023-06-19T14:42:00;30.60;52.80
66184;DHT22;52989;48.796;9.806;2023-06-19T14:44:26;30.70;53.40
66184;DHT22;52989;48.796;9.806;2023-06-19T14:46:52;31.00;55.00
66184;DHT22;52989;48.796;9.806;2023-06-19T14:49:18;31.40;53.80
66184;DHT22;52989;48.796;9.806;2023-06-19T14:51:43;30.70;52.50
66184;DHT22;52989;48.796;9.806;2023-06-19T14:54:10;31.10;53.20
66184;DHT22;52989;48.796;9.806;2023-06-19T14:56:36;30.80;52.50
66184;DHT22;52989;48.796;9.806;2023-06-19T14:59:01;31.10;53.10
66184;DHT22;52989;48.796;9.806;2023-06-19T15:01:26;31.20;53.50
66184;DHT22;52989;48.796;9.806;2023-06-19T15:03:52;31.30;53.70
66184;DHT22;52989;48.796;9.806;2023-06-19T15:06:17;31.30;55.20
66184;DHT22;52989;48.796;9.806;2023-06-19T15:08:43;31.50;53.40
66184;DHT22;52989;48.796;9.806;2023-06-19T15:11:09;31.40;51.70
66184;DHT22;52989;48.796;9.806;2023-06-19T15:13:34;31.30;53.50
66184;DHT22;52989;48.796;9.806;2023-06-19T15:16:00;30.80;54.40
66184;DHT22;52989;48.796;9.806;2023-06-19T15:18:25;30.50;56.60
66184;DHT22;52989;48.796;9.806;2023-06-19T15:20:51;30.60;57.00
66184;DHT22;52989;48.796;9.806;2023-06-19T15:23:16;31.10;54.10
66184;DHT22;52989;48.796;9.806;2023-06-19T15:25:42;31.10;53.40